sensor_id;sensor_type;location;lat;lon;timestamp;P1;durP1;ratioP1;P2;durP2;ratioP2
15307;SDS011;7755;52.208;6.964;2024-01-15T00:02:17;4.33;;;3.93;;
15307;SDS011;7755;52.208;6.964;2024-01-15T00:06:22;4.87;;;4.40;;
15307;SDS011;7755;52.208;6.964;2024-01-15T00:10:28;4.40;;;4.00;;
15307;SDS011;7755;52.208;6.964;2024-01-15T00:14:33;4.60;;;3.80;;
15307;SDS011;7755;52.208;6.964;2024-01-15T00:18:41;5.13;;;3.30;;
15307;SDS011;7755;52.208;6.964;2024-01-15T00:22:46;5.07;;;3.10;;
15307;SDS011;7755;52.208;6.964;2024-01-15T00:26:51;5.50;;;2.93;;
15307;SDS011;7755;52.208;6.964;2024-01-15T00:30:57;3.23;;;2.50;;
15307;SDS011;7755;52.208;6.964;2024-01-15T00:35:04;4.17;;;2.63;;
15307;SDS011;7755;52.208;6.964;2024-01-15T00:39:10;6.10;;;2.40;;
15307;SDS011;7755;52.208;6.964;2024-01-15T00:43:15;6.37;;;2.57;;
15307;SDS011;7755;52.208;6.964;2024-01-15T00:47:21;3.97;;;2.83;;
15307;SDS011;7755;52.208;6.964;2024-01-15T00:51:28;6.93;;;3.40;;
15307;SDS011;7755;52.208;6.964;2024-01-15T00:55:34;5.27;;;2.70;;
15307;SDS011;7755;52.208;6.964;2024-01-15T00:59:39;3.77;;;2.40;;
15307;SDS011;7755;52.208;6.964;2024-01-15T01:03:44;6.20;;;2.77;;
15307;SDS011;7755;52.208;6.964;2024-01-15T01:07:53;7.20;;;2.80;;
15307;SDS011;7755;52.208;6.964;2024-01-15T01:11:58;3.70;;;2.70;;
15307;SDS011;7755;52.208;6.964;2024-01-15T01:16:03;5.97;;;3.10;;
15307;SDS011;7755;52.208;6.964;2024-01-15T01:20:08;4.57;;;2.83;;
15307;SDS011;7755;52.208;6.964;2024-01-15T01:24:19;4.23;;;3.70;;
15307;SDS011;7755;52.208;6.964;2024-01-15T01:28:24;4.70;;;3.60;;
15307;SDS011;7755;52.208;6.964;2024-01-15T01:32:29;7.50;;;3.50;;
15307;SDS011;7755;52.208;6.964;2024-01-15T01:36:34;5.63;;;3.07;;
15307;SDS011;7755;52.208;6.964;2024-01-15T01:40:42;5.67;;;3.13;;
15307;SDS011;7755;52.208;6.964;2024-01-15T01:44:47;3.47;;;3.10;;
15307;SDS011;7755;52.208;6.964;2024-01-15T01:48:52;7.10;;;3.30;;
15307;SDS011;7755;52.208;6.964;2024-01-15T01:52:58;4.73;;;3.00;;
15307;SDS011;7755;52.208;6.964;2024-01-15T01:57:08;13.03;;;4.17;;
15307;SDS011;7755;52.208;6.964;2024-01-15T02:01:13;4.23;;;3.30;;
15307;SDS011;7755;52.208;6.964;2024-01-15T02:05:19;6.03;;;3.50;;
15307;SDS011;7755;52.208;6.964;2024-01-15T02:09:26;7.07;;;3.53;;
15307;SDS011;7755;52.208;6.964;2024-01-15T02:13:34;8.53;;;3.73;;
15307;SDS011;7755;52.208;6.964;2024-01-15T02:22:02;4.27;;;2.80;;
15307;SDS011;7755;52.208;6.964;2024-01-15T02:26:10;4.67;;;3.03;;
15307;SDS011;7755;52.208;6.964;2024-01-15T02:30:15;8.83;;;3.57;;
15307;SDS011;7755;52.208;6.964;2024-01-15T02:34:21;7.50;;;3.10;;
15307;SDS011;7755;52.208;6.964;2024-01-15T02:38:26;7.80;;;3.33;;
15307;SDS011;7755;52.208;6.964;2024-01-15T02:42:34;8.73;;;3.37;;
15307;SDS011;7755;52.208;6.964;2024-01-15T02:46:39;10.83;;;3.27;;
15307;SDS011;7755;52.208;6.964;2024-01-15T02:50:43;7.87;;;3.50;;
15307;SDS011;7755;52.208;6.964;2024-01-15T02:54:48;6.27;;;2.90;;
15307;SDS011;7755;52.208;6.964;2024-01-15T02:58:56;5.83;;;2.80;;
15307;SDS011;7755;52.208;6.964;2024-01-15T03:03:01;8.37;;;2.90;;
15307;SDS011;7755;52.208;6.964;2024-01-15T03:07:06;7.67;;;3.73;;
15307;SDS011;7755;52.208;6.964;2024-01-15T03:11:12;12.77;;;3.27;;
15307;SDS011;7755;52.208;6.964;2024-01-15T03:15:19;5.53;;;2.20;;
15307;SDS011;7755;52.208;6.964;2024-01-15T03:19:24;4.53;;;2.20;;
15307;SDS011;7755;52.208;6.964;2024-01-15T03:23:29;7.17;;;2.70;;
15307;SDS011;7755;52.208;6.964;2024-01-15T03:27:34;10.10;;;2.60;;
15307;SDS011;7755;52.208;6.964;2024-01-15T03:31:41;3.37;;;2.20;;
15307;SDS011;7755;52.208;6.964;2024-01-15T03:35:46;8.80;;;2.70;;
15307;SDS011;7755;52.208;6.964;2024-01-15T03:39:51;3.37;;;2.30;;
15307;SDS011;7755;52.208;6.964;2024-01-15T03:43:56;10.40;;;2.77;;
15307;SDS011;7755;52.208;6.964;2024-01-15T03:48:04;4.33;;;2.03;;
15307;SDS011;7755;52.208;6.964;2024-01-15T03:52:10;5.13;;;1.90;;
15307;SDS011;7755;52.208;6.964;2024-01-15T03:56:14;5.03;;;2.33;;
15307;SDS011;7755;52.208;6.964;2024-01-15T04:00:19;5.70;;;2.23;;
15307;SDS011;7755;52.208;6.964;2024-01-15T04:04:27;4.73;;;2.30;;
15307;SDS011;7755;52.208;6.964;2024-01-15T04:08:32;7.10;;;2.67;;
15307;SDS011;7755;52.208;6.964;2024-01-15T04:12:37;9.17;;;2.90;;
15307;SDS011;7755;52.208;6.964;2024-01-15T04:16:42;7.63;;;2.87;;
15307;SDS011;7755;52.208;6.964;2024-01-15T04:20:49;6.40;;;2.57;;
15307;SDS011;7755;52.208;6.964;2024-01-15T04:24:54;5.13;;;2.40;;
15307;SDS011;7755;52.208;6.964;2024-01-15T04:28:59;6.80;;;2.63;;
15307;SDS011;7755;52.208;6.964;2024-01-15T04:33:04;6.53;;;2.37;;
15307;SDS011;7755;52.208;6.964;2024-01-15T04:37:12;3.83;;;2.20;;
15307;SDS011;7755;52.208;6.964;2024-01-15T04:41:17;5.53;;;3.20;;
15307;SDS011;7755;52.208;6.964;2024-01-15T04:45:22;4.40;;;2.40;;
15307;SDS011;7755;52.208;6.964;2024-01-15T04:49:30;6.37;;;2.70;;
15307;SDS011;7755;52.208;6.964;2024-01-15T04:53:38;5.37;;;2.27;;
15307;SDS011;7755;52.208;6.964;2024-01-15T04:57:42;7.83;;;2.20;;
15307;SDS011;7755;52.208;6.964;2024-01-15T05:01:48;4.20;;;2.10;;
15307;SDS011;7755;52.208;6.964;2024-01-15T05:05:55;4.53;;;2.93;;
15307;SDS011;7755;52.208;6.964;2024-01-15T05:10:03;5.90;;;2.60;;
15307;SDS011;7755;52.208;6.964;2024-01-15T05:14:09;4.47;;;2.00;;
15307;SDS011;7755;52.208;6.964;2024-01-15T05:18:14;4.97;;;2.33;;
15307;SDS011;7755;52.208;6.964;2024-01-15T05:22:20;6.03;;;2.63;;
15307;SDS011;7755;52.208;6.964;2024-01-15T05:26:29;4.80;;;2.67;;
15307;SDS011;7755;52.208;6.964;2024-01-15T05:30:33;5.50;;;2.30;;
15307;SDS011;7755;52.208;6.964;2024-01-15T05:34:38;3.37;;;3.03;;
15307;SDS011;7755;52.208;6.964;2024-01-15T05:38:43;4.10;;;1.80;;
15307;SDS011;7755;52.208;6.964;2024-01-15T05:42:51;3.97;;;1.90;;
15307;SDS011;7755;52.208;6.964;2024-01-15T05:46:56;6.00;;;2.17;;
15307;SDS011;7755;52.208;6.964;2024-01-15T05:51:01;5.87;;;2.20;;
15307;SDS011;7755;52.208;6.964;2024-01-15T05:55:06;5.37;;;2.17;;
15307;SDS011;7755;52.208;6.964;2024-01-15T05:59:14;3.53;;;2.00;;
15307;SDS011;7755;52.208;6.964;2024-01-15T06:03:19;3.43;;;1.80;;
15307;SDS011;7755;52.208;6.964;2024-01-15T06:07:24;3.67;;;2.17;;
15307;SDS011;7755;52.208;6.964;2024-01-15T06:11:29;7.57;;;2.33;;
15307;SDS011;7755;52.208;6.964;2024-01-15T06:15:37;3.90;;;3.10;;
15307;SDS011;7755;52.208;6.964;2024-01-15T06:19:41;7.03;;;3.10;;
15307;SDS011;7755;52.208;6.964;2024-01-15T06:23:46;3.47;;;1.67;;
15307;SDS011;7755;52.208;6.964;2024-01-15T06:27:51;3.50;;;2.13;;
15307;SDS011;7755;52.208;6.964;2024-01-15T06:31:59;2.93;;;2.13;;
15307;SDS011;7755;52.208;6.964;2024-01-15T06:36:04;7.77;;;3.67;;
15307;SDS011;7755;52.208;6.964;2024-01-15T06:40:10;3.93;;;3.27;;
15307;SDS011;7755;52.208;6.964;2024-01-15T06:44:16;3.67;;;2.83;;
15307;SDS011;7755;52.208;6.964;2024-01-15T06:48:25;2.13;;;1.93;;
15307;SDS011;7755;52.208;6.964;2024-01-15T06:52:30;4.50;;;2.57;;
15307;SDS011;7755;52.208;6.964;2024-01-15T06:56:35;2.93;;;2.70;;
15307;SDS011;7755;52.208;6.964;2024-01-15T07:00:40;5.17;;;4.10;;
15307;SDS011;7755;52.208;6.964;2024-01-15T07:04:47;4.13;;;3.80;;
15307;SDS011;7755;52.208;6.964;2024-01-15T07:08:52;5.30;;;3.80;;
15307;SDS011;7755;52.208;6.964;2024-01-15T07:12:57;3.50;;;3.03;;
15307;SDS011;7755;52.208;6.964;2024-01-15T07:17:02;4.63;;;3.57;;
15307;SDS011;7755;52.208;6.964;2024-01-15T07:21:10;7.47;;;4.00;;
15307;SDS011;7755;52.208;6.964;2024-01-15T07:25:15;10.17;;;4.93;;
15307;SDS011;7755;52.208;6.964;2024-01-15T07:29:20;8.97;;;6.17;;
15307;SDS011;7755;52.208;6.964;2024-01-15T07:33:25;7.23;;;6.00;;
15307;SDS011;7755;52.208;6.964;2024-01-15T07:37:33;6.90;;;6.20;;
15307;SDS011;7755;52.208;6.964;2024-01-15T07:41:38;6.63;;;4.30;;
15307;SDS011;7755;52.208;6.964;2024-01-15T07:45:43;7.10;;;4.23;;
15307;SDS011;7755;52.208;6.964;2024-01-15T07:49:48;5.87;;;4.60;;
15307;SDS011;7755;52.208;6.964;2024-01-15T07:53:55;6.00;;;4.47;;
15307;SDS011;7755;52.208;6.964;2024-01-15T07:58:01;5.67;;;3.83;;
15307;SDS011;7755;52.208;6.964;2024-01-15T08:02:16;9.03;;;4.17;;
15307;SDS011;7755;52.208;6.964;2024-01-15T08:06:21;5.50;;;3.70;;
15307;SDS011;7755;52.208;6.964;2024-01-15T08:10:29;6.87;;;3.90;;
15307;SDS011;7755;52.208;6.964;2024-01-15T08:14:34;6.80;;;4.90;;
15307;SDS011;7755;52.208;6.964;2024-01-15T08:18:40;4.20;;;3.60;;
15307;SDS011;7755;52.208;6.964;2024-01-15T08:22:46;6.70;;;3.63;;
15307;SDS011;7755;52.208;6.964;2024-01-15T08:26:53;4.77;;;3.10;;
15307;SDS011;7755;52.208;6.964;2024-01-15T08:30:58;3.63;;;3.33;;
15307;SDS011;7755;52.208;6.964;2024-01-15T08:35:04;3.93;;;3.40;;
15307;SDS011;7755;52.208;6.964;2024-01-15T08:39:09;4.80;;;2.60;;
15307;SDS011;7755;52.208;6.964;2024-01-15T08:43:17;7.63;;;3.90;;
15307;SDS011;7755;52.208;6.964;2024-01-15T08:47:22;6.60;;;4.60;;
15307;SDS011;7755;52.208;6.964;2024-01-15T08:51:27;4.33;;;3.63;;
15307;SDS011;7755;52.208;6.964;2024-01-15T08:55:32;5.53;;;3.70;;
15307;SDS011;7755;52.208;6.964;2024-01-15T08:59:40;5.13;;;4.13;;
15307;SDS011;7755;52.208;6.964;2024-01-15T09:03:45;14.93;;;7.97;;
15307;SDS011;7755;52.208;6.964;2024-01-15T09:07:50;9.87;;;6.27;;
15307;SDS011;7755;52.208;6.964;2024-01-15T09:11:55;10.80;;;5.70;;
15307;SDS011;7755;52.208;6.964;2024-01-15T09:16:03;10.90;;;6.37;;
15307;SDS011;7755;52.208;6.964;2024-01-15T09:20:09;8.37;;;4.47;;
15307;SDS011;7755;52.208;6.964;2024-01-15T09:24:14;6.00;;;5.40;;
15307;SDS011;7755;52.208;6.964;2024-01-15T09:28:27;4.80;;;4.30;;
15307;SDS011;7755;52.208;6.964;2024-01-15T09:32:38;7.33;;;4.37;;
15307;SDS011;7755;52.208;6.964;2024-01-15T09:36:43;4.87;;;3.30;;
15307;SDS011;7755;52.208;6.964;2024-01-15T09:40:48;4.87;;;3.63;;
15307;SDS011;7755;52.208;6.964;2024-01-15T09:44:54;6.07;;;4.23;;
15307;SDS011;7755;52.208;6.964;2024-01-15T09:49:02;6.10;;;4.00;;
15307;SDS011;7755;52.208;6.964;2024-01-15T09:53:07;4.53;;;4.10;;
15307;SDS011;7755;52.208;6.964;2024-01-15T09:57:13;5.73;;;3.93;;
15307;SDS011;7755;52.208;6.964;2024-01-15T10:01:19;4.77;;;3.60;;
15307;SDS011;7755;52.208;6.964;2024-01-15T10:05:27;8.80;;;4.27;;
15307;SDS011;7755;52.208;6.964;2024-01-15T10:09:32;5.47;;;3.97;;
15307;SDS011;7755;52.208;6.964;2024-01-15T10:13:37;9.33;;;4.37;;
15307;SDS011;7755;52.208;6.964;2024-01-15T10:17:45;6.43;;;4.57;;
15307;SDS011;7755;52.208;6.964;2024-01-15T10:21:52;6.83;;;4.60;;
15307;SDS011;7755;52.208;6.964;2024-01-15T10:25:57;6.40;;;3.57;;
15307;SDS011;7755;52.208;6.964;2024-01-15T10:30:03;5.83;;;3.43;;
15307;SDS011;7755;52.208;6.964;2024-01-15T10:34:11;7.13;;;4.20;;
15307;SDS011;7755;52.208;6.964;2024-01-15T10:38:20;5.53;;;3.53;;
15307;SDS011;7755;52.208;6.964;2024-01-15T10:42:26;3.97;;;2.93;;
15307;SDS011;7755;52.208;6.964;2024-01-15T10:46:31;10.40;;;4.93;;
15307;SDS011;7755;52.208;6.964;2024-01-15T10:50:38;12.53;;;5.63;;
15307;SDS011;7755;52.208;6.964;2024-01-15T10:54:46;13.37;;;5.40;;
15307;SDS011;7755;52.208;6.964;2024-01-15T10:58:53;7.17;;;3.27;;
15307;SDS011;7755;52.208;6.964;2024-01-15T11:03:01;9.83;;;3.73;;
15307;SDS011;7755;52.208;6.964;2024-01-15T11:07:07;5.03;;;3.40;;
15307;SDS011;7755;52.208;6.964;2024-01-15T11:11:16;7.93;;;3.93;;
15307;SDS011;7755;52.208;6.964;2024-01-15T11:15:21;5.90;;;2.97;;
15307;SDS011;7755;52.208;6.964;2024-01-15T11:19:37;8.23;;;4.13;;
15307;SDS011;7755;52.208;6.964;2024-01-15T11:23:43;8.47;;;4.43;;
15307;SDS011;7755;52.208;6.964;2024-01-15T11:27:56;5.37;;;3.97;;
15307;SDS011;7755;52.208;6.964;2024-01-15T11:32:05;5.03;;;3.70;;
15307;SDS011;7755;52.208;6.964;2024-01-15T11:36:11;5.90;;;3.53;;
15307;SDS011;7755;52.208;6.964;2024-01-15T11:40:17;5.53;;;3.40;;
15307;SDS011;7755;52.208;6.964;2024-01-15T11:44:25;7.37;;;3.37;;
15307;SDS011;7755;52.208;6.964;2024-01-15T11:48:32;4.90;;;3.20;;
15307;SDS011;7755;52.208;6.964;2024-01-15T11:52:49;4.73;;;3.50;;
15307;SDS011;7755;52.208;6.964;2024-01-15T11:57:09;3.33;;;2.43;;
15307;SDS011;7755;52.208;6.964;2024-01-15T12:01:21;4.67;;;2.77;;
15307;SDS011;7755;52.208;6.964;2024-01-15T12:05:26;6.50;;;2.57;;
15307;SDS011;7755;52.208;6.964;2024-01-15T12:09:30;4.73;;;2.77;;
15307;SDS011;7755;52.208;6.964;2024-01-15T12:13:35;3.23;;;2.93;;
15307;SDS011;7755;52.208;6.964;2024-01-15T12:17:43;5.27;;;3.10;;
15307;SDS011;7755;52.208;6.964;2024-01-15T12:21:50;6.23;;;3.60;;
15307;SDS011;7755;52.208;6.964;2024-01-15T12:25:55;7.33;;;3.10;;
15307;SDS011;7755;52.208;6.964;2024-01-15T12:30:00;4.47;;;2.97;;
15307;SDS011;7755;52.208;6.964;2024-01-15T12:34:08;4.43;;;2.37;;
15307;SDS011;7755;52.208;6.964;2024-01-15T12:38:13;5.07;;;2.63;;
15307;SDS011;7755;52.208;6.964;2024-01-15T12:42:17;5.93;;;3.30;;
15307;SDS011;7755;52.208;6.964;2024-01-15T12:46:23;4.43;;;2.60;;
15307;SDS011;7755;52.208;6.964;2024-01-15T12:50:31;3.97;;;2.60;;
15307;SDS011;7755;52.208;6.964;2024-01-15T12:54:37;3.47;;;2.93;;
15307;SDS011;7755;52.208;6.964;2024-01-15T12:58:42;3.87;;;2.30;;
15307;SDS011;7755;52.208;6.964;2024-01-15T13:02:47;3.30;;;2.30;;
15307;SDS011;7755;52.208;6.964;2024-01-15T13:06:55;3.93;;;2.00;;
15307;SDS011;7755;52.208;6.964;2024-01-15T13:11:00;3.00;;;1.83;;
15307;SDS011;7755;52.208;6.964;2024-01-15T13:15:06;1.73;;;1.63;;
15307;SDS011;7755;52.208;6.964;2024-01-15T13:19:15;5.47;;;1.73;;
15307;SDS011;7755;52.208;6.964;2024-01-15T13:23:23;3.63;;;1.80;;
15307;SDS011;7755;52.208;6.964;2024-01-15T13:27:28;3.93;;;1.70;;
15307;SDS011;7755;52.208;6.964;2024-01-15T13:31:33;2.17;;;1.50;;
15307;SDS011;7755;52.208;6.964;2024-01-15T13:35:38;5.10;;;2.40;;
15307;SDS011;7755;52.208;6.964;2024-01-15T13:39:45;4.47;;;2.30;;
15307;SDS011;7755;52.208;6.964;2024-01-15T13:43:51;5.10;;;2.77;;
15307;SDS011;7755;52.208;6.964;2024-01-15T13:47:57;3.47;;;2.13;;
15307;SDS011;7755;52.208;6.964;2024-01-15T13:52:02;4.33;;;2.27;;
15307;SDS011;7755;52.208;6.964;2024-01-15T13:56:10;6.13;;;3.03;;
15307;SDS011;7755;52.208;6.964;2024-01-15T14:00:15;1.93;;;1.83;;
15307;SDS011;7755;52.208;6.964;2024-01-15T14:04:22;1.83;;;1.73;;
15307;SDS011;7755;52.208;6.964;2024-01-15T14:08:26;3.30;;;1.53;;
15307;SDS011;7755;52.208;6.964;2024-01-15T14:12:34;2.27;;;1.57;;
15307;SDS011;7755;52.208;6.964;2024-01-15T14:16:39;6.23;;;2.67;;
15307;SDS011;7755;52.208;6.964;2024-01-15T14:20:44;3.70;;;3.17;;
15307;SDS011;7755;52.208;6.964;2024-01-15T14:24:48;6.10;;;2.90;;
15307;SDS011;7755;52.208;6.964;2024-01-15T14:28:57;5.73;;;3.90;;
15307;SDS011;7755;52.208;6.964;2024-01-15T14:33:02;6.03;;;2.87;;
15307;SDS011;7755;52.208;6.964;2024-01-15T14:37:07;5.27;;;3.37;;
15307;SDS011;7755;52.208;6.964;2024-01-15T14:41:12;2.87;;;2.13;;
15307;SDS011;7755;52.208;6.964;2024-01-15T14:45:21;3.97;;;2.20;;
15307;SDS011;7755;52.208;6.964;2024-01-15T14:49:25;2.73;;;2.37;;
15307;SDS011;7755;52.208;6.964;2024-01-15T14:53:30;3.13;;;2.00;;
15307;SDS011;7755;52.208;6.964;2024-01-15T14:57:37;3.53;;;1.73;;
15307;SDS011;7755;52.208;6.964;2024-01-15T15:01:44;3.30;;;2.33;;
15307;SDS011;7755;52.208;6.964;2024-01-15T15:05:50;4.00;;;2.80;;
15307;SDS011;7755;52.208;6.964;2024-01-15T15:09:55;5.23;;;3.07;;
15307;SDS011;7755;52.208;6.964;2024-01-15T15:14:00;6.00;;;2.70;;
15307;SDS011;7755;52.208;6.964;2024-01-15T15:18:08;7.50;;;3.10;;
15307;SDS011;7755;52.208;6.964;2024-01-15T15:22:13;4.73;;;2.40;;
15307;SDS011;7755;52.208;6.964;2024-01-15T15:26:19;4.43;;;2.47;;
15307;SDS011;7755;52.208;6.964;2024-01-15T15:30:24;6.97;;;2.90;;
15307;SDS011;7755;52.208;6.964;2024-01-15T15:34:31;10.37;;;2.97;;
15307;SDS011;7755;52.208;6.964;2024-01-15T15:38:36;3.77;;;2.87;;
15307;SDS011;7755;52.208;6.964;2024-01-15T15:42:42;7.20;;;2.73;;
15307;SDS011;7755;52.208;6.964;2024-01-15T15:46:47;8.13;;;2.73;;
15307;SDS011;7755;52.208;6.964;2024-01-15T15:50:54;6.87;;;3.07;;
15307;SDS011;7755;52.208;6.964;2024-01-15T15:55:01;4.43;;;2.77;;
15307;SDS011;7755;52.208;6.964;2024-01-15T15:59:06;3.73;;;2.53;;
15307;SDS011;7755;52.208;6.964;2024-01-15T16:03:12;12.10;;;3.47;;
15307;SDS011;7755;52.208;6.964;2024-01-15T16:07:20;7.67;;;2.53;;
15307;SDS011;7755;52.208;6.964;2024-01-15T16:11:30;4.23;;;3.20;;
15307;SDS011;7755;52.208;6.964;2024-01-15T16:15:34;11.27;;;4.00;;
15307;SDS011;7755;52.208;6.964;2024-01-15T16:19:40;7.70;;;3.27;;
15307;SDS011;7755;52.208;6.964;2024-01-15T16:24:07;5.63;;;3.17;;
15307;SDS011;7755;52.208;6.964;2024-01-15T16:28:26;8.20;;;2.87;;
15307;SDS011;7755;52.208;6.964;2024-01-15T16:32:31;6.60;;;3.70;;
15307;SDS011;7755;52.208;6.964;2024-01-15T16:36:36;8.87;;;3.80;;
15307;SDS011;7755;52.208;6.964;2024-01-15T16:40:44;11.47;;;6.47;;
15307;SDS011;7755;52.208;6.964;2024-01-15T16:44:49;7.83;;;3.57;;
15307;SDS011;7755;52.208;6.964;2024-01-15T16:48:54;10.07;;;4.10;;
15307;SDS011;7755;52.208;6.964;2024-01-15T16:52:59;7.77;;;3.97;;
15307;SDS011;7755;52.208;6.964;2024-01-15T16:57:07;12.67;;;7.20;;
15307;SDS011;7755;52.208;6.964;2024-01-15T17:01:12;9.00;;;3.80;;
15307;SDS011;7755;52.208;6.964;2024-01-15T17:05:17;8.60;;;3.40;;
15307;SDS011;7755;52.208;6.964;2024-01-15T17:09:23;6.77;;;3.13;;
15307;SDS011;7755;52.208;6.964;2024-01-15T17:13:31;6.13;;;2.77;;
15307;SDS011;7755;52.208;6.964;2024-01-15T17:17:37;4.83;;;2.67;;
15307;SDS011;7755;52.208;6.964;2024-01-15T17:21:42;5.83;;;2.70;;
15307;SDS011;7755;52.208;6.964;2024-01-15T17:25:47;4.10;;;2.73;;
15307;SDS011;7755;52.208;6.964;2024-01-15T17:29:54;4.87;;;2.93;;
15307;SDS011;7755;52.208;6.964;2024-01-15T17:33:59;5.70;;;3.50;;
15307;SDS011;7755;52.208;6.964;2024-01-15T17:38:06;4.20;;;3.17;;
15307;SDS011;7755;52.208;6.964;2024-01-15T17:42:11;4.47;;;2.80;;
15307;SDS011;7755;52.208;6.964;2024-01-15T17:46:19;4.20;;;3.10;;
15307;SDS011;7755;52.208;6.964;2024-01-15T17:50:24;6.40;;;3.13;;
15307;SDS011;7755;52.208;6.964;2024-01-15T17:54:28;7.07;;;3.80;;
15307;SDS011;7755;52.208;6.964;2024-01-15T17:58:33;4.80;;;3.03;;
15307;SDS011;7755;52.208;6.964;2024-01-15T18:02:43;4.00;;;3.10;;
15307;SDS011;7755;52.208;6.964;2024-01-15T18:06:48;5.17;;;3.17;;
15307;SDS011;7755;52.208;6.964;2024-01-15T18:10:53;3.67;;;3.33;;
15307;SDS011;7755;52.208;6.964;2024-01-15T18:14:59;4.93;;;3.03;;
15307;SDS011;7755;52.208;6.964;2024-01-15T18:19:07;5.30;;;4.00;;
15307;SDS011;7755;52.208;6.964;2024-01-15T18:23:12;4.37;;;2.77;;
15307;SDS011;7755;52.208;6.964;2024-01-15T18:27:17;3.70;;;2.43;;
15307;SDS011;7755;52.208;6.964;2024-01-15T18:31:22;5.13;;;3.03;;
15307;SDS011;7755;52.208;6.964;2024-01-15T18:35:30;6.03;;;3.07;;
15307;SDS011;7755;52.208;6.964;2024-01-15T18:39:35;3.40;;;3.10;;
15307;SDS011;7755;52.208;6.964;2024-01-15T18:43:40;4.77;;;2.63;;
15307;SDS011;7755;52.208;6.964;2024-01-15T18:47:45;3.33;;;2.70;;
15307;SDS011;7755;52.208;6.964;2024-01-15T18:51:52;4.83;;;2.60;;
15307;SDS011;7755;52.208;6.964;2024-01-15T18:55:58;3.30;;;2.50;;
15307;SDS011;7755;52.208;6.964;2024-01-15T19:00:06;5.47;;;2.77;;
15307;SDS011;7755;52.208;6.964;2024-01-15T19:04:12;3.53;;;2.20;;
15307;SDS011;7755;52.208;6.964;2024-01-15T19:08:20;4.63;;;2.83;;
15307;SDS011;7755;52.208;6.964;2024-01-15T19:12:25;4.50;;;3.40;;
15307;SDS011;7755;52.208;6.964;2024-01-15T19:16:30;5.60;;;2.70;;
15307;SDS011;7755;52.208;6.964;2024-01-15T19:20:34;4.97;;;2.57;;
15307;SDS011;7755;52.208;6.964;2024-01-15T19:24:43;4.87;;;2.43;;
15307;SDS011;7755;52.208;6.964;2024-01-15T19:28:48;3.80;;;2.93;;
15307;SDS011;7755;52.208;6.964;2024-01-15T19:32:53;6.87;;;3.00;;
15307;SDS011;7755;52.208;6.964;2024-01-15T19:36:58;4.87;;;2.77;;
15307;SDS011;7755;52.208;6.964;2024-01-15T19:41:05;2.73;;;2.40;;
15307;SDS011;7755;52.208;6.964;2024-01-15T19:45:10;9.27;;;2.90;;
15307;SDS011;7755;52.208;6.964;2024-01-15T19:49:15;5.33;;;3.20;;
15307;SDS011;7755;52.208;6.964;2024-01-15T19:53:21;4.67;;;2.70;;
15307;SDS011;7755;52.208;6.964;2024-01-15T19:57:28;5.43;;;2.67;;
15307;SDS011;7755;52.208;6.964;2024-01-15T20:01:33;5.70;;;3.30;;
15307;SDS011;7755;52.208;6.964;2024-01-15T20:05:38;10.77;;;6.63;;
15307;SDS011;7755;52.208;6.964;2024-01-15T20:09:43;3.83;;;3.40;;
15307;SDS011;7755;52.208;6.964;2024-01-15T20:13:51;5.07;;;3.43;;
15307;SDS011;7755;52.208;6.964;2024-01-15T20:17:56;3.93;;;2.33;;
15307;SDS011;7755;52.208;6.964;2024-01-15T20:22:01;3.90;;;2.43;;
15307;SDS011;7755;52.208;6.964;2024-01-15T20:26:06;2.87;;;2.17;;
15307;SDS011;7755;52.208;6.964;2024-01-15T20:30:14;4.93;;;2.33;;
15307;SDS011;7755;52.208;6.964;2024-01-15T20:34:19;9.70;;;3.20;;
15307;SDS011;7755;52.208;6.964;2024-01-15T20:38:24;4.33;;;2.50;;
15307;SDS011;7755;52.208;6.964;2024-01-15T20:42:29;4.97;;;2.60;;
15307;SDS011;7755;52.208;6.964;2024-01-15T20:46:37;5.50;;;2.30;;
15307;SDS011;7755;52.208;6.964;2024-01-15T20:50:41;4.40;;;2.27;;
15307;SDS011;7755;52.208;6.964;2024-01-15T20:54:46;5.73;;;2.50;;
15307;SDS011;7755;52.208;6.964;2024-01-15T20:58:51;11.03;;;3.73;;
15307;SDS011;7755;52.208;6.964;2024-01-15T21:02:59;5.83;;;2.80;;
15307;SDS011;7755;52.208;6.964;2024-01-15T21:07:05;3.27;;;2.30;;
15307;SDS011;7755;52.208;6.964;2024-01-15T21:11:10;3.63;;;2.40;;
15307;SDS011;7755;52.208;6.964;2024-01-15T21:15:15;7.77;;;3.13;;
15307;SDS011;7755;52.208;6.964;2024-01-15T21:19:23;4.70;;;3.17;;
15307;SDS011;7755;52.208;6.964;2024-01-15T21:23:28;4.20;;;3.00;;
15307;SDS011;7755;52.208;6.964;2024-01-15T21:27:34;4.37;;;3.53;;
15307;SDS011;7755;52.208;6.964;2024-01-15T21:31:40;3.60;;;2.87;;
15307;SDS011;7755;52.208;6.964;2024-01-15T21:35:47;3.83;;;2.77;;
15307;SDS011;7755;52.208;6.964;2024-01-15T21:39:52;3.90;;;2.50;;
15307;SDS011;7755;52.208;6.964;2024-01-15T21:43:57;4.23;;;2.97;;
15307;SDS011;7755;52.208;6.964;2024-01-15T21:48:08;4.30;;;3.03;;
15307;SDS011;7755;52.208;6.964;2024-01-15T21:52:16;4.57;;;2.50;;
15307;SDS011;7755;52.208;6.964;2024-01-15T21:56:20;4.93;;;2.83;;
15307;SDS011;7755;52.208;6.964;2024-01-15T22:00:25;5.67;;;2.73;;
15307;SDS011;7755;52.208;6.964;2024-01-15T22:04:30;4.40;;;3.37;;
15307;SDS011;7755;52.208;6.964;2024-01-15T22:08:38;2.63;;;2.13;;
15307;SDS011;7755;52.208;6.964;2024-01-15T22:12:43;5.20;;;2.20;;
15307;SDS011;7755;52.208;6.964;2024-01-15T22:16:48;2.40;;;2.17;;
15307;SDS011;7755;52.208;6.964;2024-01-15T22:20:52;2.20;;;2.00;;
15307;SDS011;7755;52.208;6.964;2024-01-15T22:25:01;5.90;;;3.07;;
15307;SDS011;7755;52.208;6.964;2024-01-15T22:29:07;3.67;;;1.60;;
15307;SDS011;7755;52.208;6.964;2024-01-15T22:33:12;2.30;;;1.90;;
15307;SDS011;7755;52.208;6.964;2024-01-15T22:37:17;2.80;;;2.60;;
15307;SDS011;7755;52.208;6.964;2024-01-15T22:41:25;3.27;;;2.07;;
15307;SDS011;7755;52.208;6.964;2024-01-15T22:45:31;4.07;;;3.10;;
15307;SDS011;7755;52.208;6.964;2024-01-15T22:49:36;5.70;;;3.20;;
15307;SDS011;7755;52.208;6.964;2024-01-15T22:53:41;8.17;;;3.50;;
15307;SDS011;7755;52.208;6.964;2024-01-15T22:57:49;7.27;;;3.60;;
15307;SDS011;7755;52.208;6.964;2024-01-15T23:01:54;6.80;;;3.63;;
15307;SDS011;7755;52.208;6.964;2024-01-15T23:05:58;7.87;;;4.33;;
15307;SDS011;7755;52.208;6.964;2024-01-15T23:10:05;9.87;;;5.33;;
15307;SDS011;7755;52.208;6.964;2024-01-15T23:14:14;7.43;;;4.00;;
15307;SDS011;7755;52.208;6.964;2024-01-15T23:18:19;8.53;;;4.13;;
15307;SDS011;7755;52.208;6.964;2024-01-15T23:22:24;10.47;;;6.30;;
15307;SDS011;7755;52.208;6.964;2024-01-15T23:26:29;10.03;;;4.97;;
15307;SDS011;7755;52.208;6.964;2024-01-15T23:30:37;11.33;;;6.43;;
15307;SDS011;7755;52.208;6.964;2024-01-15T23:34:42;8.87;;;6.30;;
15307;SDS011;7755;52.208;6.964;2024-01-15T23:38:46;12.83;;;6.67;;
15307;SDS011;7755;52.208;6.964;2024-01-15T23:42:51;11.93;;;7.13;;
15307;SDS011;7755;52.208;6.964;2024-01-15T23:46:59;12.47;;;6.20;;
15307;SDS011;7755;52.208;6.964;2024-01-15T23:51:04;8.67;;;6.37;;
15307;SDS011;7755;52.208;6.964;2024-01-15T23:55:09;11.13;;;5.83;;
15307;SDS011;7755;52.208;6.964;2024-01-15T23:59:14;10.47;;;6.30;;
